createdAt,value
2018-12-08T00:01:00.065Z,5.30
2018-12-08T00:03:29.212Z,5.30
2018-12-08T00:06:17.037Z,4.53
2018-12-08T00:08:46.113Z,4.10
2018-12-08T00:11:15.165Z,5.07
2018-12-08T00:13:44.211Z,5.15
2018-12-08T00:16:13.403Z,6.72
2018-12-08T00:18:42.365Z,6.30
2018-12-08T00:21:11.424Z,5.68
2018-12-08T00:23:40.490Z,6.12
2018-12-08T00:26:11.118Z,4.72
2018-12-08T00:28:38.598Z,4.72
2018-12-08T00:31:19.613Z,3.97
2018-12-08T00:33:48.648Z,4.10
2018-12-08T00:36:17.703Z,3.65
2018-12-08T00:38:46.857Z,4.07
2018-12-08T00:41:15.818Z,3.45
2018-12-08T00:43:44.875Z,4.30
2018-12-08T00:46:13.936Z,4.18
2018-12-08T00:48:42.979Z,3.53
2018-12-08T00:51:12.044Z,3.30
2018-12-08T00:53:41.123Z,3.50
2018-12-08T00:56:10.171Z,4.50
2018-12-08T00:58:39.204Z,4.45
2018-12-08T01:01:08.269Z,4.28
2018-12-08T01:03:37.315Z,3.77
2018-12-08T01:06:06.361Z,4.37
2018-12-08T01:08:35.441Z,4.55
2018-12-08T01:11:04.470Z,3.72
2018-12-08T01:13:33.501Z,4.10
2018-12-08T01:16:02.591Z,3.40
2018-12-08T01:18:31.640Z,4.00
2018-12-08T01:21:00.689Z,3.30
2018-12-08T01:23:29.770Z,4.00
2018-12-08T01:25:58.801Z,3.15
2018-12-08T01:28:27.842Z,2.80
2018-12-08T01:30:56.915Z,2.90
2018-12-08T01:33:25.959Z,2.45
2018-12-08T01:35:55.002Z,2.60
2018-12-08T01:38:24.184Z,2.80
2018-12-08T01:40:53.237Z,2.78
2018-12-08T01:43:22.283Z,2.87
2018-12-08T01:45:51.364Z,3.00
2018-12-08T01:48:20.413Z,3.00
2018-12-08T01:50:49.466Z,2.80
2018-12-08T01:53:18.537Z,2.92
2018-12-08T01:55:47.573Z,2.92
2018-12-08T01:58:16.633Z,3.15
2018-12-08T02:00:45.734Z,2.80
2018-12-08T02:03:14.788Z,2.87
2018-12-08T02:05:43.832Z,2.30
2018-12-08T02:08:12.904Z,2.28
2018-12-08T02:10:41.960Z,2.20
2018-12-08T02:13:10.997Z,2.67
2018-12-08T02:15:40.143Z,2.37
2018-12-08T02:18:09.199Z,2.00
2018-12-08T02:20:38.252Z,2.20
2018-12-08T02:23:07.363Z,2.10
2018-12-08T02:25:36.410Z,2.10
2018-12-08T02:28:05.466Z,2.05
2018-12-08T02:30:34.549Z,2.75
2018-12-08T02:33:03.600Z,2.10
2018-12-08T02:35:32.640Z,2.78
2018-12-08T02:38:01.708Z,2.30
2018-12-08T02:40:30.768Z,2.37
2018-12-08T02:42:59.824Z,2.20
2018-12-08T02:45:28.918Z,2.00
2018-12-08T02:47:57.962Z,2.00
2018-12-08T02:50:27.010Z,2.15
2018-12-08T02:52:56.076Z,2.00
2018-12-08T02:55:33.556Z,1.80
2018-12-08T02:58:02.622Z,2.00
2018-12-08T03:00:31.704Z,2.37
2018-12-08T03:03:00.757Z,1.92
2018-12-08T03:05:29.844Z,2.10
2018-12-08T03:07:58.894Z,1.80
2018-12-08T03:10:27.935Z,2.10
2018-12-08T03:12:56.998Z,2.10
2018-12-08T03:15:26.056Z,1.90
2018-12-08T03:17:55.102Z,2.08
2018-12-08T03:20:24.176Z,2.03
2018-12-08T03:22:53.230Z,1.98
2018-12-08T03:25:22.283Z,1.80
2018-12-08T03:27:51.481Z,1.95
2018-12-08T03:30:20.523Z,1.83
2018-12-08T03:32:49.569Z,2.00
2018-12-08T03:35:19.662Z,2.60
2018-12-08T03:37:48.712Z,2.70
2018-12-08T03:40:17.877Z,2.40
2018-12-08T03:42:46.830Z,2.45
2018-12-08T03:45:23.074Z,2.12
2018-12-08T03:47:52.183Z,2.00
2018-12-08T03:50:21.227Z,1.60
2018-12-08T03:52:50.277Z,1.50
2018-12-08T03:55:19.348Z,1.60
2018-12-08T03:57:48.393Z,1.60
2018-12-08T04:00:17.449Z,1.50
2018-12-08T04:02:46.526Z,2.47
2018-12-08T04:08:19.948Z,1.60
2018-12-08T04:10:49.060Z,1.70
2018-12-08T04:13:18.038Z,1.60
2018-12-08T04:15:47.111Z,1.80
2018-12-08T04:18:16.171Z,1.70
2018-12-08T04:20:45.227Z,2.25
2018-12-08T04:23:14.295Z,1.90
2018-12-08T04:25:43.349Z,2.20
2018-12-08T04:28:12.390Z,2.58
2018-12-08T04:30:41.490Z,2.50
2018-12-08T04:33:10.541Z,4.60
2018-12-08T04:35:39.597Z,2.25
2018-12-08T04:38:08.681Z,1.95
2018-12-08T04:40:37.711Z,1.73
2018-12-08T04:43:07.690Z,1.50
2018-12-08T04:45:36.921Z,1.60
2018-12-08T04:48:05.959Z,2.03
2018-12-08T04:50:35.012Z,1.50
2018-12-08T04:53:04.216Z,1.60
2018-12-08T04:55:33.279Z,2.05
2018-12-08T04:58:02.312Z,2.72
2018-12-08T05:00:31.376Z,2.63
2018-12-08T05:03:00.500Z,1.60
2018-12-08T05:05:29.536Z,1.90
2018-12-08T05:07:58.596Z,1.70
2018-12-08T05:10:27.640Z,2.00
2018-12-08T05:12:56.671Z,2.08
2018-12-08T05:15:27.758Z,2.70
2018-12-08T05:17:56.809Z,2.83
2018-12-08T05:20:25.849Z,1.87
2018-12-08T05:22:54.923Z,1.70
2018-12-08T05:25:23.962Z,2.00
2018-12-08T05:27:53.001Z,2.07
2018-12-08T05:30:22.307Z,1.77
2018-12-08T05:32:51.333Z,2.53
2018-12-08T05:35:33.931Z,2.10
2018-12-08T05:38:02.956Z,2.30
2018-12-08T05:40:31.985Z,2.13
2018-12-08T05:43:01.293Z,2.27
2018-12-08T05:45:30.337Z,2.50
2018-12-08T05:47:59.390Z,2.50
2018-12-08T05:50:28.446Z,2.87
2018-12-08T05:52:57.502Z,2.40
2018-12-08T05:55:31.932Z,2.70
2018-12-08T05:58:00.965Z,3.33
2018-12-08T06:00:30.009Z,3.57
2018-12-08T06:02:59.078Z,2.50
2018-12-08T06:05:28.114Z,2.93
2018-12-08T06:07:58.681Z,3.07
2018-12-08T06:10:26.224Z,2.60
2018-12-08T06:12:55.368Z,3.73
2018-12-08T06:15:24.342Z,3.00
2018-12-08T06:17:53.431Z,3.10
2018-12-08T06:20:22.473Z,2.70
2018-12-08T06:22:51.493Z,3.00
2018-12-08T06:25:20.570Z,3.40
2018-12-08T06:27:49.613Z,3.17
2018-12-08T06:32:51.362Z,3.80
2018-12-08T06:35:20.397Z,4.33
2018-12-08T06:37:49.435Z,4.10
2018-12-08T06:40:18.527Z,4.17
2018-12-08T06:42:47.571Z,5.10
2018-12-08T06:45:16.615Z,4.63
2018-12-08T06:47:45.702Z,4.37
2018-12-08T06:50:14.749Z,4.07
2018-12-08T06:52:43.799Z,4.80
2018-12-08T06:55:13.075Z,4.63
2018-12-08T06:57:42.134Z,4.53
2018-12-08T07:00:11.174Z,4.00
2018-12-08T07:02:40.269Z,3.73
2018-12-08T07:05:09.333Z,5.40
2018-12-08T07:07:38.391Z,5.17
2018-12-08T07:10:07.475Z,5.40
2018-12-08T07:12:36.541Z,5.60
2018-12-08T07:15:05.641Z,9.00
2018-12-08T07:17:34.708Z,45.03
2018-12-08T07:20:03.778Z,19.60
2018-12-08T07:22:32.857Z,13.77
2018-12-08T07:25:10.609Z,6.87
2018-12-08T07:27:39.643Z,5.47
2018-12-08T07:30:08.679Z,4.30
2018-12-08T07:32:38.958Z,4.37
2018-12-08T07:35:06.812Z,4.37
2018-12-08T07:37:35.853Z,5.57
2018-12-08T07:40:04.922Z,4.93
2018-12-08T07:42:33.995Z,4.67
2018-12-08T07:45:08.236Z,5.50
2018-12-08T07:47:37.279Z,4.73
2018-12-08T07:50:06.313Z,5.10
2018-12-08T07:52:35.399Z,5.63
2018-12-08T07:55:04.456Z,5.33
2018-12-08T07:57:33.497Z,43.50
2018-12-08T08:00:04.524Z,27.27
2018-12-08T08:02:31.645Z,15.53
2018-12-08T08:05:00.693Z,12.17
2018-12-08T08:07:29.789Z,10.67
2018-12-08T08:09:58.847Z,11.47
2018-12-08T08:12:27.890Z,9.53
2018-12-08T08:14:56.966Z,11.43
2018-12-08T08:17:26.016Z,11.27
2018-12-08T08:19:55.049Z,8.30
2018-12-08T08:22:24.122Z,7.27
2018-12-08T08:24:53.181Z,9.67
2018-12-08T08:27:22.271Z,9.63
2018-12-08T08:29:51.365Z,11.20
2018-12-08T08:32:20.426Z,11.50
2018-12-08T08:34:49.480Z,10.37
2018-12-08T08:37:18.569Z,15.63
2018-12-08T08:39:47.601Z,7.80
2018-12-08T08:42:16.640Z,7.43
2018-12-08T08:44:45.718Z,7.90
2018-12-08T08:47:14.764Z,6.43
2018-12-08T08:49:43.794Z,5.77
2018-12-08T08:52:12.878Z,6.20
2018-12-08T08:54:41.923Z,6.30
2018-12-08T08:57:10.961Z,8.60
2018-12-08T08:59:40.339Z,8.60
2018-12-08T09:02:09.384Z,6.23
2018-12-08T09:04:38.415Z,5.97
2018-12-08T09:07:07.481Z,6.93
2018-12-08T09:09:36.515Z,7.13
2018-12-08T09:12:05.549Z,5.70
2018-12-08T09:14:34.632Z,6.20
2018-12-08T09:17:03.731Z,7.77
2018-12-08T09:19:32.722Z,7.70
2018-12-08T09:22:01.787Z,7.63
2018-12-08T09:24:30.835Z,9.27
2018-12-08T09:26:59.877Z,6.10
2018-12-08T09:29:28.947Z,6.73
2018-12-08T09:31:57.989Z,5.43
2018-12-08T09:34:27.033Z,6.00
2018-12-08T09:36:56.479Z,7.03
2018-12-08T09:39:25.521Z,4.70
2018-12-08T09:41:54.567Z,6.57
2018-12-08T09:44:23.638Z,6.10
2018-12-08T09:46:52.691Z,6.60
2018-12-08T09:49:21.742Z,5.60
2018-12-08T09:51:50.815Z,7.40
2018-12-08T09:54:19.871Z,7.13
2018-12-08T09:56:48.902Z,4.77
2018-12-08T09:59:18.009Z,4.80
2018-12-08T10:01:47.054Z,4.80
2018-12-08T10:04:16.108Z,5.03
2018-12-08T10:06:45.190Z,5.17
2018-12-08T10:09:14.229Z,6.73
2018-12-08T10:11:43.278Z,5.83
2018-12-08T10:14:12.353Z,4.77
2018-12-08T10:16:41.400Z,4.40
2018-12-08T10:19:10.435Z,3.77
2018-12-08T10:21:39.517Z,4.13
2018-12-08T10:24:08.553Z,5.00
2018-12-08T10:26:37.584Z,3.40
2018-12-08T10:29:06.879Z,3.90
2018-12-08T10:31:35.917Z,4.93
2018-12-08T10:34:04.974Z,23.87
2018-12-08T10:36:34.042Z,6.70
2018-12-08T10:39:03.088Z,4.90
2018-12-08T10:41:32.118Z,4.77
2018-12-08T10:44:01.200Z,5.17
2018-12-08T10:46:30.231Z,7.10
2018-12-08T10:48:59.267Z,5.57
2018-12-08T10:51:28.339Z,5.20
2018-12-08T10:53:57.380Z,5.93
2018-12-08T10:56:26.421Z,4.87
2018-12-08T10:58:55.499Z,4.57
2018-12-08T11:01:24.535Z,5.63
2018-12-08T11:03:53.567Z,6.07
2018-12-08T11:06:22.743Z,5.07
2018-12-08T11:08:51.785Z,5.60
2018-12-08T11:11:20.825Z,7.77
2018-12-08T11:13:49.904Z,6.60
2018-12-08T11:16:18.952Z,6.90
2018-12-08T11:18:47.985Z,8.13
2018-12-08T11:21:17.057Z,7.60
2018-12-08T11:23:46.094Z,15.13
2018-12-08T11:26:15.139Z,7.83
2018-12-08T11:28:44.239Z,5.30
2018-12-08T11:31:13.275Z,9.70
2018-12-08T11:33:42.315Z,10.27
2018-12-08T11:36:11.406Z,10.10
2018-12-08T11:38:40.451Z,24.53
2018-12-08T11:41:09.501Z,27.23
2018-12-08T11:43:38.575Z,14.70
2018-12-08T11:46:07.636Z,39.13
2018-12-08T11:48:36.693Z,22.97
2018-12-08T11:51:05.783Z,8.93
2018-12-08T11:53:34.820Z,6.57
2018-12-08T11:56:03.870Z,5.17
2018-12-08T11:58:33.033Z,15.27
2018-12-08T12:01:02.067Z,5.63
2018-12-08T12:03:31.111Z,4.27
2018-12-08T12:06:00.169Z,4.30
2018-12-08T12:08:29.205Z,3.97
2018-12-08T12:10:58.235Z,4.13
2018-12-08T12:13:27.308Z,5.50
2018-12-08T12:15:56.344Z,7.50
2018-12-08T12:18:25.378Z,5.17
2018-12-08T12:20:54.480Z,11.10
2018-12-08T12:23:23.518Z,8.80
2018-12-08T12:25:52.572Z,10.00
2018-12-08T12:28:21.672Z,6.20
2018-12-08T12:30:50.693Z,9.70
2018-12-08T12:33:19.735Z,18.40
2018-12-08T12:35:52.191Z,8.97
2018-12-08T12:38:21.228Z,7.10
2018-12-08T12:40:50.265Z,7.97
2018-12-08T12:43:19.329Z,5.87
2018-12-08T12:45:48.361Z,4.10
2018-12-08T12:48:17.400Z,8.43
2018-12-08T12:50:46.472Z,7.23
2018-12-08T12:53:15.540Z,5.00
2018-12-08T12:55:44.576Z,6.77
2018-12-08T12:58:13.708Z,7.47
2018-12-08T13:00:42.759Z,29.53
2018-12-08T13:03:11.810Z,23.07
2018-12-08T13:05:40.885Z,30.13
2018-12-08T13:08:09.931Z,17.07
2018-12-08T13:10:38.979Z,14.43
2018-12-08T13:13:08.051Z,15.17
2018-12-08T13:15:37.092Z,10.50
2018-12-08T13:18:06.136Z,14.53
2018-12-08T13:20:35.258Z,14.47
2018-12-08T13:23:04.298Z,23.43
2018-12-08T13:28:39.103Z,18.07
2018-12-08T13:31:08.179Z,13.00
2018-12-08T13:33:37.233Z,11.07
2018-12-08T13:36:06.291Z,10.93
2018-12-08T13:38:35.376Z,5.93
2018-12-08T13:41:04.419Z,7.17
2018-12-08T13:43:33.458Z,8.83
2018-12-08T13:46:02.522Z,5.50
2018-12-08T13:48:31.552Z,7.43
2018-12-08T13:51:00.588Z,7.40
2018-12-08T13:53:36.516Z,6.37
2018-12-08T13:55:58.708Z,8.83
2018-12-08T13:58:27.746Z,5.10
2018-12-08T14:00:56.954Z,7.53
2018-12-08T14:03:26.000Z,8.23
2018-12-08T14:05:55.040Z,9.27
2018-12-08T14:08:24.113Z,19.20
2018-12-08T14:10:53.160Z,12.63
2018-12-08T14:13:22.243Z,15.03
2018-12-08T14:15:51.324Z,7.93
2018-12-08T14:18:20.358Z,6.23
2018-12-08T14:20:49.404Z,9.43
2018-12-08T14:23:18.502Z,13.00
2018-12-08T14:25:47.545Z,15.03
2018-12-08T14:28:16.586Z,9.63
2018-12-08T14:30:45.663Z,6.83
2018-12-08T14:33:15.391Z,6.53
2018-12-08T14:35:44.658Z,7.33
2018-12-08T14:38:13.739Z,8.77
2018-12-08T14:40:42.781Z,10.13
2018-12-08T14:43:11.823Z,9.43
2018-12-08T14:45:41.093Z,7.40
2018-12-08T14:48:10.121Z,8.23
2018-12-08T14:50:39.169Z,12.23
2018-12-08T14:53:08.264Z,11.53
2018-12-08T14:55:37.318Z,13.63
2018-12-08T14:58:06.365Z,11.43
2018-12-08T15:00:35.436Z,10.00
2018-12-08T15:03:04.499Z,13.87
2018-12-08T15:05:33.538Z,11.87
2018-12-08T15:08:02.636Z,14.93
2018-12-08T15:10:31.689Z,9.63
2018-12-08T15:13:00.746Z,16.67
2018-12-08T15:15:29.823Z,12.68
2018-12-08T15:17:58.873Z,10.07
2018-12-08T15:20:27.919Z,14.70
2018-12-08T15:22:57.000Z,12.77
2018-12-08T15:25:26.039Z,8.33
2018-12-08T15:27:55.077Z,7.93
2018-12-08T15:30:24.180Z,11.10
2018-12-08T15:32:53.223Z,14.83
2018-12-08T15:35:34.725Z,12.80
2018-12-08T15:38:03.775Z,21.13
2018-12-08T15:40:32.817Z,13.97
2018-12-08T15:43:01.917Z,8.73
2018-12-08T15:45:30.969Z,14.48
2018-12-08T15:48:00.024Z,12.90
2018-12-08T15:50:29.115Z,13.23
2018-12-08T15:52:58.157Z,11.57
2018-12-08T15:58:30.292Z,9.33
2018-12-08T16:00:59.365Z,18.30
2018-12-08T16:03:28.403Z,7.50
2018-12-08T16:05:57.442Z,7.93
2018-12-08T16:08:26.553Z,11.03
2018-12-08T16:10:55.606Z,14.07
2018-12-08T16:13:24.732Z,8.27
2018-12-08T16:15:53.729Z,7.70
2018-12-08T16:18:22.770Z,9.63
2018-12-08T16:20:51.810Z,8.87
2018-12-08T16:23:20.892Z,11.27
2018-12-08T16:25:49.926Z,8.30
2018-12-08T16:28:18.978Z,9.30
2018-12-08T16:30:48.056Z,8.50
2018-12-08T16:33:17.157Z,10.10
2018-12-08T16:35:46.177Z,12.43
2018-12-08T16:38:15.244Z,5.97
2018-12-08T16:40:44.290Z,8.20
2018-12-08T16:43:13.324Z,7.83
2018-12-08T16:45:42.401Z,9.17
2018-12-08T16:48:11.432Z,8.63
2018-12-08T16:50:41.002Z,9.67
2018-12-08T16:53:09.536Z,5.90
2018-12-08T16:55:42.639Z,5.57
2018-12-08T16:58:11.783Z,5.57
2018-12-08T17:00:40.833Z,6.30
2018-12-08T17:03:09.858Z,6.20
2018-12-08T17:05:38.925Z,7.00
2018-12-08T17:08:07.965Z,7.47
2018-12-08T17:10:37.014Z,7.97
2018-12-08T17:13:06.122Z,5.97
2018-12-08T17:15:35.156Z,5.60
2018-12-08T17:18:04.197Z,6.23
2018-12-08T17:20:33.261Z,5.80
2018-12-08T17:23:02.309Z,7.70
2018-12-08T17:25:31.349Z,6.73
2018-12-08T17:28:00.409Z,8.60
2018-12-08T17:30:29.449Z,5.63
2018-12-08T17:32:58.497Z,6.33
2018-12-08T17:35:28.546Z,5.47
2018-12-08T17:37:57.578Z,6.80
2018-12-08T17:40:26.620Z,6.50
2018-12-08T17:42:55.675Z,6.77
2018-12-08T17:45:24.708Z,5.30
2018-12-08T17:47:53.758Z,10.40
2018-12-08T17:50:22.835Z,14.37
2018-12-08T17:52:51.867Z,5.57
2018-12-08T17:55:20.915Z,7.07
2018-12-08T17:57:50.016Z,5.37
2018-12-08T18:00:19.063Z,5.20
2018-12-08T18:02:48.105Z,5.90
2018-12-08T18:05:17.172Z,4.70
2018-12-08T18:07:46.217Z,7.00
2018-12-08T18:10:15.248Z,5.40
2018-12-08T18:12:44.316Z,4.73
2018-12-08T18:15:13.338Z,4.47
2018-12-08T18:17:42.371Z,5.17
2018-12-08T18:20:11.485Z,5.30
2018-12-08T18:22:40.576Z,8.30
2018-12-08T18:25:25.595Z,5.80
2018-12-08T18:27:54.625Z,4.97
2018-12-08T18:30:23.681Z,7.57
2018-12-08T18:32:52.768Z,7.47
2018-12-08T18:35:21.822Z,10.07
2018-12-08T18:37:50.859Z,5.90
2018-12-08T18:40:20.057Z,6.93
2018-12-08T18:42:49.056Z,6.53
2018-12-08T18:45:18.102Z,5.83
2018-12-08T18:47:47.176Z,6.23
2018-12-08T18:50:16.217Z,6.83
2018-12-08T18:52:45.252Z,7.40
2018-12-08T18:55:14.357Z,12.30
2018-12-08T18:57:43.391Z,7.43
2018-12-08T19:00:12.423Z,7.00
2018-12-08T19:02:41.517Z,8.17
2018-12-08T19:05:22.008Z,5.70
2018-12-08T19:07:51.156Z,5.20
2018-12-08T19:10:20.168Z,6.00
2018-12-08T19:12:49.282Z,5.67
2018-12-08T19:15:18.338Z,5.00
2018-12-08T19:17:47.378Z,12.80
2018-12-08T19:20:16.418Z,5.60
2018-12-08T19:22:45.498Z,4.70
2018-12-08T19:28:30.414Z,5.03
2018-12-08T19:30:59.328Z,5.97
2018-12-08T19:33:28.353Z,4.50
2018-12-08T19:36:10.596Z,4.03
2018-12-08T19:38:39.626Z,3.97
2018-12-08T19:41:08.664Z,6.07
2018-12-08T19:43:37.827Z,4.20
2018-12-08T19:46:06.858Z,6.20
2018-12-08T19:48:35.895Z,5.90
2018-12-08T19:51:04.953Z,4.53
2018-12-08T19:53:34.004Z,4.13
2018-12-08T19:56:03.076Z,5.63
2018-12-08T19:58:32.143Z,4.22
2018-12-08T20:01:01.183Z,4.60
2018-12-08T20:03:30.228Z,4.80
2018-12-08T20:05:59.325Z,5.73
2018-12-08T20:08:28.365Z,4.27
2018-12-08T20:10:57.408Z,4.80
2018-12-08T20:13:26.471Z,4.43
2018-12-08T20:16:14.220Z,4.70
2018-12-08T20:18:43.279Z,5.63
2018-12-08T20:21:12.378Z,7.27
2018-12-08T20:23:41.463Z,24.17
2018-12-08T20:26:10.585Z,6.87
2018-12-08T20:28:39.612Z,5.80
2018-12-08T20:31:08.658Z,8.73
2018-12-08T20:33:37.728Z,9.47
2018-12-08T20:36:06.796Z,16.13
2018-12-08T20:38:35.846Z,6.50
2018-12-08T20:41:04.952Z,11.17
2018-12-08T20:43:34.034Z,11.47
2018-12-08T20:46:03.315Z,9.70
2018-12-08T20:48:32.504Z,10.00
2018-12-08T20:51:01.553Z,8.67
2018-12-08T20:53:30.586Z,11.80
2018-12-08T20:55:59.662Z,8.90
2018-12-08T20:58:28.710Z,7.87
2018-12-08T21:00:57.756Z,10.27
2018-12-08T21:03:26.822Z,7.17
2018-12-08T21:05:55.868Z,9.93
2018-12-08T21:08:24.915Z,9.03
2018-12-08T21:10:53.996Z,18.20
2018-12-08T21:13:23.052Z,11.60
2018-12-08T21:15:59.304Z,7.97
2018-12-08T21:18:28.347Z,6.37
2018-12-08T21:20:57.383Z,9.53
2018-12-08T21:23:27.163Z,5.43
2018-12-08T21:25:55.503Z,8.20
2018-12-08T21:28:24.547Z,7.23
2018-12-08T21:30:53.651Z,8.60
2018-12-08T21:33:22.689Z,6.33
2018-12-08T21:35:51.729Z,6.70
2018-12-08T21:38:20.795Z,5.40
2018-12-08T21:40:49.856Z,5.20
2018-12-08T21:43:18.899Z,4.80
2018-12-08T21:45:47.999Z,5.53
2018-12-08T21:48:17.028Z,5.20
2018-12-08T21:50:46.068Z,4.37
2018-12-08T21:53:15.174Z,5.90
2018-12-08T21:55:44.194Z,5.13
2018-12-08T21:58:13.243Z,4.87
2018-12-08T22:00:42.339Z,4.03
2018-12-08T22:03:11.364Z,4.17
2018-12-08T22:05:40.394Z,5.07
2018-12-08T22:08:09.447Z,5.33
2018-12-08T22:10:38.477Z,4.90
2018-12-08T22:13:07.565Z,4.80
2018-12-08T22:15:36.639Z,4.67
2018-12-08T22:18:05.685Z,4.93
2018-12-08T22:20:34.746Z,5.27
2018-12-08T22:23:03.816Z,4.70
2018-12-08T22:25:36.841Z,5.47
2018-12-08T22:28:05.901Z,4.30
2018-12-08T22:30:34.923Z,7.97
2018-12-08T22:33:03.973Z,6.57
2018-12-08T22:35:33.347Z,5.87
2018-12-08T22:38:02.379Z,6.53
2018-12-08T22:40:31.399Z,5.30
2018-12-08T22:43:00.467Z,4.90
2018-12-08T22:45:29.499Z,5.70
2018-12-08T22:47:58.544Z,4.80
2018-12-08T22:50:27.632Z,3.90
2018-12-08T22:52:56.658Z,5.17
2018-12-08T22:55:25.703Z,4.23
2018-12-08T22:57:54.871Z,4.30
2018-12-08T23:00:31.860Z,4.10
2018-12-08T23:03:00.960Z,4.73
2018-12-08T23:05:50.457Z,4.70
2018-12-08T23:08:19.529Z,4.53
2018-12-08T23:10:48.557Z,5.23
2018-12-08T23:13:17.593Z,3.87
2018-12-08T23:15:46.671Z,4.20
2018-12-08T23:18:15.802Z,4.67
2018-12-08T23:20:44.853Z,3.97
2018-12-08T23:23:13.923Z,4.00
2018-12-08T23:25:42.961Z,4.20
2018-12-08T23:28:11.981Z,4.10
2018-12-08T23:30:41.058Z,3.90
2018-12-08T23:33:10.079Z,4.03
2018-12-08T23:35:39.124Z,4.80
2018-12-08T23:38:08.295Z,4.07
2018-12-08T23:40:37.365Z,4.43
2018-12-08T23:43:06.398Z,4.40
2018-12-08T23:48:44.510Z,4.43
2018-12-08T23:51:13.577Z,5.47
2018-12-08T23:53:42.609Z,5.20
2018-12-08T23:56:11.703Z,4.30
2018-12-08T23:58:40.787Z,5.13
